Terminal Aerodrome Forecast
Issued by NWS Shreveport, LA

Home | Current Version | Previous Version | Text Only | Print | Product List | Glossary On
Versions: 1 2 3 4 5 6 7 8 9 10 11 12 13 14 15 16 17 18 19 20 21 22 23 24 25 26 27 28 29 30
722
FTUS44 KSHV 130540
TAFLFK
TAF
KLFK 130540Z 1306/1406 00000KT P6SM FEW250
     FM130900 15002KT P6SM OVC025
     FM131500 20006KT P6SM OVC015
     FM132300 30003KT P6SM SCT025 BKN250=

USA.gov is the U.S. government's official web portal to all federal, state and local government web resources and services.